Time;durP1;ratioP1;P1;durP2;ratioP2;P2;SDS_P1;SDS_P2;PMS_P1;PMS_P2;Temp;Humidity;BMP_temperature;BMP_pressure;BME280_temperature;BME280_humidity;BME280_pressure;Samples;Min_cycle;Max_cycle;Signal;HPM_P1;HPM_P2
2024/01/25 00:00:07;;;;;;;30.67;4.82;;;;;;;;;;5046861;28;20026;-79
2024/01/25 00:02:33;;;;;;;39.40;5.43;;;;;;;;;;5029419;28;20441;-79
2024/01/25 00:04:59;;;;;;;38.15;5.15;;;;;;;;;;5032248;28;20085;-79
2024/01/25 00:07:25;;;;;;;42.65;6.22;;;;;;;;;;5049000;28;20108;-79
2024/01/25 00:09:51;;;;;;;46.38;6.28;;;;;;;;;;5049405;28;20407;-79
2024/01/25 00:12:17;;;;;;;33.10;5.25;;;;;;;;;;5029984;28;20021;-79
2024/01/25 00:14:43;;;;;;;33.58;4.65;;;;;;;;;;5029192;28;20413;-79
2024/01/25 00:17:09;;;;;;;38.50;4.38;;;;;;;;;;5047619;28;20048;-79
2024/01/25 00:19:35;;;;;;;38.65;5.75;;;;;;;;;;5050237;28;20044;-79
2024/01/25 00:22:01;;;;;;;38.25;6.40;;;;;;;;;;5035051;28;20025;-78
2024/01/25 00:24:27;;;;;;;35.88;4.60;;;;;;;;;;5028617;28;20021;-79
2024/01/25 00:26:53;;;;;;;38.67;5.57;;;;;;;;;;5041855;28;20116;-79
2024/01/25 00:29:19;;;;;;;33.55;5.32;;;;;;;;;;5048465;28;20704;-79
2024/01/25 00:31:45;;;;;;;40.25;5.10;;;;;;;;;;5036902;28;20025;-79
2024/01/25 00:34:11;;;;;;;47.75;6.00;;;;;;;;;;5028317;28;20022;-78
2024/01/25 00:36:37;;;;;;;37.13;4.75;;;;;;;;;;5039005;28;20063;-79
2024/01/25 00:39:04;;;;;;;43.83;6.45;;;;;;;;;;5049772;28;20031;-79
2024/01/25 00:41:32;;;;;;;38.75;6.45;;;;;;;;;;5040345;28;20041;-79
2024/01/25 00:43:58;;;;;;;39.42;5.15;;;;;;;;;;5028386;28;20018;-79
2024/01/25 00:46:24;;;;;;;37.92;5.40;;;;;;;;;;5036814;28;20489;-79
2024/01/25 00:48:50;;;;;;;47.10;6.15;;;;;;;;;;5048502;28;20024;-78
2024/01/25 00:51:20;;;;;;;42.60;5.38;;;;;;;;;;5040664;28;20022;-79
2024/01/25 00:53:46;;;;;;;40.97;5.50;;;;;;;;;;5027726;28;20025;-79
2024/01/25 00:56:12;;;;;;;35.03;5.18;;;;;;;;;;5032439;28;20009;-79
2024/01/25 00:58:38;;;;;;;41.70;5.63;;;;;;;;;;5048499;28;20628;-79
2024/01/25 01:01:04;;;;;;;40.45;5.60;;;;;;;;;;5048483;28;20104;-79
2024/01/25 01:03:31;;;;;;;41.22;5.03;;;;;;;;;;5028584;28;20100;-79
2024/01/25 01:05:57;;;;;;;43.65;6.60;;;;;;;;;;5029773;28;20013;-78
2024/01/25 01:08:24;;;;;;;34.70;4.70;;;;;;;;;;5047022;28;20040;-79
2024/01/25 01:10:50;;;;;;;40.33;5.30;;;;;;;;;;5047411;28;20021;-79
2024/01/25 01:13:16;;;;;;;37.28;5.10;;;;;;;;;;5031857;28;20028;-79
2024/01/25 01:15:42;;;;;;;41.10;5.55;;;;;;;;;;5029882;28;20021;-79
2024/01/25 01:18:08;;;;;;;36.13;5.25;;;;;;;;;;5043327;28;20497;-79
2024/01/25 01:20:34;;;;;;;38.42;5.70;;;;;;;;;;5049327;28;20009;-79
2024/01/25 01:23:00;;;;;;;39.83;5.25;;;;;;;;;;5036050;28;20017;-79
2024/01/25 01:25:26;;;;;;;47.97;5.03;;;;;;;;;;5029516;28;20055;-79
2024/01/25 01:27:52;;;;;;;38.45;5.15;;;;;;;;;;5027957;28;20013;-79
2024/01/25 01:30:18;;;;;;;40.72;5.63;;;;;;;;;;5028005;28;20018;-79
2024/01/25 01:32:44;;;;;;;43.67;5.10;;;;;;;;;;5037398;28;20469;-79
2024/01/25 01:35:10;;;;;;;42.35;5.50;;;;;;;;;;5047574;28;20052;-79
2024/01/25 01:37:36;;;;;;;51.28;5.18;;;;;;;;;;5040177;28;20056;-79
2024/01/25 01:40:02;;;;;;;47.28;5.93;;;;;;;;;;5027836;28;20049;-78
2024/01/25 01:42:28;;;;;;;40.70;5.43;;;;;;;;;;5029458;28;20086;-79
2024/01/25 01:44:54;;;;;;;42.83;5.00;;;;;;;;;;5029036;28;20022;-79
2024/01/25 01:47:20;;;;;;;37.47;5.32;;;;;;;;;;5033813;28;20025;-79
2024/01/25 01:49:47;;;;;;;39.15;5.40;;;;;;;;;;5047523;28;20589;-79
2024/01/25 01:52:13;;;;;;;35.88;5.20;;;;;;;;;;5043290;28;20024;-79
2024/01/25 01:54:39;;;;;;;37.22;5.40;;;;;;;;;;5027162;28;20553;-79
2024/01/25 01:57:05;;;;;;;38.30;5.95;;;;;;;;;;5028407;28;20100;-79
2024/01/25 01:59:32;;;;;;;40.65;5.45;;;;;;;;;;5027057;28;20112;-79
2024/01/25 02:01:58;;;;;;;50.47;5.38;;;;;;;;;;5027323;28;20057;-79
2024/01/25 02:04:24;;;;;;;46.33;5.65;;;;;;;;;;5027068;28;20014;-79
2024/01/25 02:06:50;;;;;;;41.42;5.95;;;;;;;;;;5027172;28;20021;-79
2024/01/25 02:09:16;;;;;;;50.20;5.50;;;;;;;;;;5046691;28;20017;-79
2024/01/25 02:11:42;;;;;;;46.33;6.38;;;;;;;;;;5047268;28;20096;-79
2024/01/25 02:14:11;;;;;;;38.03;5.70;;;;;;;;;;5029838;28;20101;-79
2024/01/25 02:16:37;;;;;;;49.72;6.18;;;;;;;;;;5028831;28;20006;-79
2024/01/25 02:19:03;;;;;;;38.85;5.25;;;;;;;;;;5029092;28;20014;-79
2024/01/25 02:21:29;;;;;;;36.60;5.35;;;;;;;;;;5028862;28;20393;-79
2024/01/25 02:23:55;;;;;;;35.85;5.57;;;;;;;;;;5042676;28;20028;-79
2024/01/25 02:26:21;;;;;;;49.28;5.10;;;;;;;;;;5047452;28;20086;-79
2024/01/25 02:28:47;;;;;;;43.88;5.47;;;;;;;;;;5034795;28;20418;-79
2024/01/25 02:31:13;;;;;;;37.95;4.93;;;;;;;;;;5032166;28;20018;-79
2024/01/25 02:33:39;;;;;;;41.08;5.93;;;;;;;;;;5042158;28;20029;-79
2024/01/25 02:36:06;;;;;;;49.90;5.60;;;;;;;;;;5051007;28;20020;-79
2024/01/25 02:38:32;;;;;;;44.78;5.55;;;;;;;;;;5050754;28;20108;-79
2024/01/25 02:40:58;;;;;;;35.63;6.25;;;;;;;;;;5052112;28;20456;-79
2024/01/25 02:43:24;;;;;;;46.92;5.45;;;;;;;;;;5052080;28;20017;-79
2024/01/25 02:45:50;;;;;;;46.58;6.05;;;;;;;;;;5050936;28;20028;-79
2024/01/25 02:48:16;;;;;;;50.20;6.20;;;;;;;;;;5050368;28;20172;-79
2024/01/25 02:50:42;;;;;;;47.80;5.63;;;;;;;;;;5052266;28;20021;-79
2024/01/25 02:53:08;;;;;;;38.72;5.13;;;;;;;;;;5050810;28;20095;-79
2024/01/25 02:55:34;;;;;;;43.63;5.30;;;;;;;;;;5051856;28;20057;-79
2024/01/25 02:58:00;;;;;;;38.95;5.88;;;;;;;;;;5052064;28;20483;-79
2024/01/25 03:00:26;;;;;;;49.58;5.70;;;;;;;;;;5031089;28;20015;-79
2024/01/25 03:02:52;;;;;;;43.95;5.72;;;;;;;;;;5030834;28;20009;-79
2024/01/25 03:05:18;;;;;;;43.13;5.35;;;;;;;;;;5048531;28;20074;-79
2024/01/25 03:07:45;;;;;;;52.55;6.03;;;;;;;;;;5051732;28;20013;-79
2024/01/25 03:10:11;;;;;;;47.58;6.55;;;;;;;;;;5034777;28;20028;-79
2024/01/25 03:12:37;;;;;;;49.67;5.97;;;;;;;;;;5030570;28;20049;-79
2024/01/25 03:15:03;;;;;;;53.22;6.53;;;;;;;;;;5045555;28;20074;-79
2024/01/25 03:17:29;;;;;;;44.20;6.15;;;;;;;;;;5050654;28;20048;-79
2024/01/25 03:19:55;;;;;;;55.25;6.38;;;;;;;;;;5037148;28;20021;-79
2024/01/25 03:22:22;;;;;;;53.70;6.25;;;;;;;;;;5030162;28;20025;-79
2024/01/25 03:24:48;;;;;;;58.75;5.85;;;;;;;;;;5029777;28;20547;-79
2024/01/25 03:27:14;;;;;;;46.60;5.78;;;;;;;;;;5031385;28;20038;-79
2024/01/25 03:29:43;;;;;;;43.90;5.82;;;;;;;;;;5041531;28;20044;-79
2024/01/25 03:32:10;;;;;;;51.93;6.10;;;;;;;;;;5049797;28;20473;-79
2024/01/25 03:34:36;;;;;;;50.15;5.95;;;;;;;;;;5038736;28;20096;-79
2024/01/25 03:37:02;;;;;;;64.80;7.38;;;;;;;;;;5029739;28;20014;-78
2024/01/25 03:39:28;;;;;;;46.00;5.50;;;;;;;;;;5039344;28;20104;-79
2024/01/25 03:41:54;;;;;;;47.15;5.93;;;;;;;;;;5049851;28;20096;-79
2024/01/25 03:44:20;;;;;;;48.78;5.97;;;;;;;;;;5042750;28;20492;-79
2024/01/25 03:46:46;;;;;;;53.03;7.25;;;;;;;;;;5031308;28;20525;-79
2024/01/25 03:49:12;;;;;;;50.28;6.00;;;;;;;;;;5029878;28;20100;-79
2024/01/25 03:51:38;;;;;;;52.80;5.88;;;;;;;;;;5029041;28;20117;-80
2024/01/25 03:54:04;;;;;;;48.42;6.45;;;;;;;;;;5033202;28;20053;-79
2024/01/25 03:56:30;;;;;;;47.53;6.82;;;;;;;;;;5049289;28;20048;-79
2024/01/25 03:58:56;;;;;;;53.58;6.28;;;;;;;;;;5046195;28;20053;-79
2024/01/25 04:01:22;;;;;;;47.08;6.00;;;;;;;;;;5030466;28;20857;-79
2024/01/25 04:03:48;;;;;;;52.50;6.65;;;;;;;;;;5030796;28;20025;-79
2024/01/25 04:06:14;;;;;;;58.00;6.68;;;;;;;;;;5048975;28;20459;-79
2024/01/25 04:08:40;;;;;;;57.42;8.23;;;;;;;;;;5048779;28;20052;-79
2024/01/25 04:11:08;;;;;;;61.03;6.78;;;;;;;;;;5030075;28;20124;-79
2024/01/25 04:13:35;;;;;;;46.30;6.22;;;;;;;;;;5029679;28;20326;-79
2024/01/25 04:16:01;;;;;;;57.95;6.07;;;;;;;;;;5047457;28;20017;-79
2024/01/25 04:18:27;;;;;;;54.20;6.65;;;;;;;;;;5049142;28;20024;-79
2024/01/25 04:20:53;;;;;;;47.30;6.20;;;;;;;;;;5048799;28;20024;-79
2024/01/25 04:23:19;;;;;;;61.67;6.72;;;;;;;;;;5050285;28;20013;-79
2024/01/25 04:25:45;;;;;;;53.47;6.28;;;;;;;;;;5034215;28;20410;-79
2024/01/25 04:28:10;;;;;;;58.60;8.13;;;;;;;;;;5030504;28;20069;-79
2024/01/25 04:30:37;;;;;;;51.80;6.32;;;;;;;;;;5042414;28;20055;-79
2024/01/25 04:33:03;;;;;;;43.15;6.00;;;;;;;;;;5050245;28;20358;-79
2024/01/25 04:35:31;;;;;;;58.05;5.90;;;;;;;;;;5035997;28;20125;-79
2024/01/25 04:37:57;;;;;;;54.33;7.50;;;;;;;;;;5030416;28;20025;-79
2024/01/25 04:40:23;;;;;;;51.67;6.50;;;;;;;;;;5039701;28;20013;-78
2024/01/25 04:42:49;;;;;;;50.35;6.28;;;;;;;;;;5049036;28;20393;-81
2024/01/25 04:45:15;;;;;;;54.95;7.15;;;;;;;;;;5039293;28;20025;-82
2024/01/25 04:47:41;;;;;;;46.92;5.93;;;;;;;;;;5030443;28;20651;-81
2024/01/25 04:50:07;;;;;;;41.60;5.40;;;;;;;;;;5030373;28;20028;-80
2024/01/25 04:52:33;;;;;;;58.40;7.00;;;;;;;;;;5028293;28;20167;-79
2024/01/25 04:54:59;;;;;;;63.20;5.93;;;;;;;;;;5035970;28;20112;-80
2024/01/25 04:57:25;;;;;;;62.60;6.47;;;;;;;;;;5048320;28;20013;-80
2024/01/25 04:59:51;;;;;;;55.75;6.72;;;;;;;;;;5043853;28;20022;-80
2024/01/25 05:02:17;;;;;;;54.33;6.35;;;;;;;;;;5028321;28;20275;-79
2024/01/25 05:04:43;;;;;;;56.80;6.40;;;;;;;;;;5031155;28;20013;-79
2024/01/25 05:07:09;;;;;;;52.35;5.93;;;;;;;;;;5048197;28;20032;-80
2024/01/25 05:09:35;;;;;;;60.00;5.78;;;;;;;;;;5047409;28;20043;-83
2024/01/25 05:12:02;;;;;;;58.58;6.15;;;;;;;;;;5030144;28;20063;-83
2024/01/25 05:14:28;;;;;;;53.15;5.82;;;;;;;;;;5029064;28;20038;-82
2024/01/25 05:16:54;;;;;;;52.33;5.95;;;;;;;;;;5029668;28;20022;-83
2024/01/25 05:19:20;;;;;;;49.83;5.95;;;;;;;;;;5028292;28;20024;-81
2024/01/25 05:21:46;;;;;;;44.30;6.30;;;;;;;;;;5046831;28;20221;-80
2024/01/25 05:24:12;;;;;;;55.03;7.03;;;;;;;;;;5048886;28;20013;-82
2024/01/25 05:26:39;;;;;;;63.47;6.68;;;;;;;;;;5044957;28;20482;-83
2024/01/25 05:29:05;;;;;;;63.83;6.28;;;;;;;;;;5048781;28;20164;-81
2024/01/25 05:31:31;;;;;;;59.95;5.85;;;;;;;;;;5048648;28;20472;-81
2024/01/25 05:33:57;;;;;;;61.28;6.05;;;;;;;;;;5048207;28;20022;-81
2024/01/25 05:36:23;;;;;;;53.47;6.22;;;;;;;;;;5044945;28;20519;-81
2024/01/25 05:38:49;;;;;;;48.75;5.97;;;;;;;;;;5045759;28;20037;-78
2024/01/25 05:41:15;;;;;;;61.80;6.18;;;;;;;;;;5045526;28;20020;-78
2024/01/25 05:43:41;;;;;;;65.32;7.35;;;;;;;;;;5046494;28;20086;-84
2024/01/25 05:46:09;;;;;;;66.25;7.30;;;;;;;;;;5046824;28;20036;-79
2024/01/25 05:48:35;;;;;;;50.50;6.70;;;;;;;;;;5047864;28;20066;-79
2024/01/25 05:51:01;;;;;;;55.30;6.95;;;;;;;;;;5038991;28;20022;-79
2024/01/25 05:53:27;;;;;;;60.10;6.18;;;;;;;;;;5027901;28;20256;-79
2024/01/25 05:55:53;;;;;;;50.97;6.50;;;;;;;;;;5043286;28;20017;-81
2024/01/25 05:58:19;;;;;;;68.68;7.82;;;;;;;;;;5047574;28;20013;-80
2024/01/25 06:00:45;;;;;;;78.90;7.25;;;;;;;;;;5047149;28;20486;-79
2024/01/25 06:03:11;;;;;;;64.45;6.68;;;;;;;;;;5047340;28;20048;-81
2024/01/25 06:05:37;;;;;;;61.90;6.78;;;;;;;;;;5050834;28;20032;-81
2024/01/25 06:08:03;;;;;;;64.07;7.40;;;;;;;;;;5051726;28;20473;-81
2024/01/25 06:10:29;;;;;;;59.33;7.60;;;;;;;;;;5051042;28;20024;-81
2024/01/25 06:12:55;;;;;;;62.78;6.93;;;;;;;;;;5032006;28;20044;-81
2024/01/25 06:15:21;;;;;;;65.95;7.55;;;;;;;;;;5032239;28;20025;-80
2024/01/25 06:17:47;;;;;;;62.83;6.75;;;;;;;;;;5050177;28;20025;-79
2024/01/25 06:20:13;;;;;;;64.05;7.10;;;;;;;;;;5036425;28;20184;-79
2024/01/25 06:22:39;;;;;;;59.80;7.38;;;;;;;;;;5031855;28;20021;-79
2024/01/25 06:25:05;;;;;;;67.05;7.82;;;;;;;;;;5031972;28;20527;-79
2024/01/25 06:27:31;;;;;;;58.65;7.30;;;;;;;;;;5045278;28;20485;-78
2024/01/25 06:29:57;;;;;;;70.95;7.53;;;;;;;;;;5050442;28;20037;-78
2024/01/25 06:32:23;;;;;;;62.00;7.40;;;;;;;;;;5037852;28;20389;-79
2024/01/25 06:34:49;;;;;;;72.53;8.43;;;;;;;;;;5030770;28;20036;-79
2024/01/25 06:37:18;;;;;;;60.97;7.78;;;;;;;;;;5043864;28;20017;-78
2024/01/25 06:39:44;;;;;;;73.82;8.13;;;;;;;;;;5052185;28;20013;-79
2024/01/25 06:42:10;;;;;;;53.13;7.00;;;;;;;;;;5050681;28;20402;-80
2024/01/25 06:44:36;;;;;;;74.28;8.13;;;;;;;;;;5050027;28;20074;-79
2024/01/25 06:47:02;;;;;;;69.40;8.05;;;;;;;;;;5041633;28;20391;-80
2024/01/25 06:49:28;;;;;;;79.53;8.80;;;;;;;;;;5032328;28;20029;-80
2024/01/25 06:51:54;;;;;;;71.53;8.05;;;;;;;;;;5048901;28;20021;-79
2024/01/25 06:54:20;;;;;;;64.65;7.60;;;;;;;;;;5044274;28;20436;-79
2024/01/25 06:56:46;;;;;;;61.80;8.20;;;;;;;;;;5051218;28;20017;-79
2024/01/25 06:59:12;;;;;;;67.28;8.50;;;;;;;;;;5050968;28;20017;-79
2024/01/25 07:01:38;;;;;;;62.88;8.45;;;;;;;;;;5049841;28;20017;-79
2024/01/25 07:04:04;;;;;;;66.30;7.38;;;;;;;;;;5051232;28;20059;-79
2024/01/25 07:06:30;;;;;;;66.88;8.02;;;;;;;;;;5045853;28;20023;-79
2024/01/25 07:08:56;;;;;;;71.20;8.55;;;;;;;;;;5029271;28;20028;-79
2024/01/25 07:11:23;;;;;;;71.10;8.38;;;;;;;;;;5029807;28;20025;-79
2024/01/25 07:13:49;;;;;;;66.20;8.27;;;;;;;;;;5049484;28;20043;-79
2024/01/25 07:16:15;;;;;;;72.43;9.48;;;;;;;;;;5049160;28;20581;-79
2024/01/25 07:18:41;;;;;;;78.07;8.93;;;;;;;;;;5032325;28;20021;-80
2024/01/25 07:21:07;;;;;;;71.18;7.90;;;;;;;;;;5029137;28;20109;-79
2024/01/25 07:23:33;;;;;;;67.07;8.68;;;;;;;;;;5031562;28;20022;-79
2024/01/25 07:25:59;;;;;;;78.93;8.65;;;;;;;;;;5032058;28;20025;-79
2024/01/25 07:28:25;;;;;;;57.10;7.18;;;;;;;;;;5044162;28;20032;-79
2024/01/25 07:30:52;;;;;;;61.60;8.35;;;;;;;;;;5049270;28;20013;-79
2024/01/25 07:33:18;;;;;;;58.40;7.72;;;;;;;;;;5051006;28;20021;-79
2024/01/25 07:35:47;;;;;;;68.57;7.97;;;;;;;;;;5049715;28;20020;-79
2024/01/25 07:38:16;;;;;;;63.38;7.57;;;;;;;;;;5036511;28;20014;-79
2024/01/25 07:40:43;;;;;;;69.55;8.05;;;;;;;;;;5030624;28;20018;-79
2024/01/25 07:43:09;;;;;;;62.55;8.18;;;;;;;;;;5029131;28;20014;-81
2024/01/25 07:45:35;;;;;;;61.55;7.78;;;;;;;;;;5030979;28;20029;-79
2024/01/25 07:48:01;;;;;;;62.40;8.27;;;;;;;;;;5040709;28;20028;-79
2024/01/25 07:50:27;;;;;;;63.22;8.95;;;;;;;;;;5049008;28;20021;-79
2024/01/25 07:52:54;;;;;;;62.35;7.40;;;;;;;;;;5042735;28;20489;-79
2024/01/25 07:55:20;;;;;;;68.20;8.88;;;;;;;;;;5030295;28;20025;-79
2024/01/25 07:57:46;;;;;;;61.63;7.43;;;;;;;;;;5034208;28;20013;-79
2024/01/25 08:00:13;;;;;;;59.80;8.15;;;;;;;;;;5050239;28;20385;-79
2024/01/25 08:02:41;;;;;;;53.88;7.70;;;;;;;;;;5047519;28;20013;-79
2024/01/25 08:05:07;;;;;;;58.00;8.10;;;;;;;;;;5034722;28;20297;-79
2024/01/25 08:07:33;;;;;;;59.58;7.35;;;;;;;;;;5039045;28;20489;-79
2024/01/25 08:09:59;;;;;;;58.65;8.05;;;;;;;;;;5049442;28;20021;-79
2024/01/25 08:12:25;;;;;;;53.75;7.43;;;;;;;;;;5050965;28;20106;-79
2024/01/25 08:14:51;;;;;;;65.32;7.80;;;;;;;;;;5036772;28;20036;-79
2024/01/25 08:17:17;;;;;;;65.40;7.90;;;;;;;;;;5041605;28;20024;-79
2024/01/25 08:19:44;;;;;;;69.90;8.10;;;;;;;;;;5048689;28;20025;-79
2024/01/25 08:22:10;;;;;;;64.88;7.47;;;;;;;;;;5048673;28;20175;-79
2024/01/25 08:24:36;;;;;;;65.38;8.50;;;;;;;;;;5032217;28;20487;-79
2024/01/25 08:27:02;;;;;;;48.90;7.50;;;;;;;;;;5029178;28;20022;-79
2024/01/25 08:29:28;;;;;;;66.82;8.38;;;;;;;;;;5043867;28;20044;-79
2024/01/25 08:31:54;;;;;;;71.82;8.15;;;;;;;;;;5049767;28;20021;-79
2024/01/25 08:34:21;;;;;;;69.80;7.90;;;;;;;;;;5048786;28;20024;-79
2024/01/25 08:36:47;;;;;;;62.78;8.23;;;;;;;;;;5050202;28;20517;-79
2024/01/25 08:39:14;;;;;;;68.95;8.60;;;;;;;;;;5036411;28;20018;-79
2024/01/25 08:41:41;;;;;;;67.95;7.70;;;;;;;;;;5029635;28;20013;-79
2024/01/25 08:44:07;;;;;;;67.55;8.35;;;;;;;;;;5041134;28;20451;-80
2024/01/25 08:46:34;;;;;;;64.95;9.07;;;;;;;;;;5048534;28;20021;-79
2024/01/25 08:49:00;;;;;;;72.07;9.10;;;;;;;;;;5049748;28;20017;-79
2024/01/25 08:51:26;;;;;;;66.90;8.32;;;;;;;;;;5049730;28;20021;-79
2024/01/25 08:53:52;;;;;;;66.97;7.80;;;;;;;;;;5040035;28;20026;-79
2024/01/25 08:56:18;;;;;;;50.33;7.80;;;;;;;;;;5028220;28;20454;-79
2024/01/25 08:58:44;;;;;;;66.75;6.55;;;;;;;;;;5034706;28;20028;-79
2024/01/25 09:01:10;;;;;;;59.90;7.13;;;;;;;;;;5048621;28;20044;-79
2024/01/25 09:03:37;;;;;;;57.58;7.68;;;;;;;;;;5048247;28;20312;-79
2024/01/25 09:06:05;;;;;;;64.40;7.70;;;;;;;;;;5047940;28;20017;-79
2024/01/25 09:08:32;;;;;;;58.60;7.07;;;;;;;;;;5043978;28;20079;-79
2024/01/25 09:10:58;;;;;;;57.53;7.65;;;;;;;;;;5029450;28;20279;-79
2024/01/25 09:13:25;;;;;;;49.42;7.70;;;;;;;;;;5028765;28;20041;-79
2024/01/25 09:15:51;;;;;;;62.65;7.43;;;;;;;;;;5049109;28;20021;-79
2024/01/25 09:18:17;;;;;;;58.55;8.00;;;;;;;;;;5047399;28;20005;-79
2024/01/25 09:20:47;;;;;;;51.00;6.32;;;;;;;;;;5028159;28;20018;-79
2024/01/25 09:23:15;;;;;;;59.97;7.28;;;;;;;;;;5028033;28;20022;-79
2024/01/25 09:25:41;;;;;;;59.28;7.63;;;;;;;;;;5047624;28;20053;-80
2024/01/25 09:28:07;;;;;;;54.10;7.55;;;;;;;;;;5048882;28;20019;-79
2024/01/25 09:30:34;;;;;;;52.75;6.80;;;;;;;;;;5031345;28;20516;-79
2024/01/25 09:33:00;;;;;;;53.80;8.07;;;;;;;;;;5027888;28;20010;-80
2024/01/25 09:35:26;;;;;;;57.72;7.07;;;;;;;;;;5044788;28;20029;-80
2024/01/25 09:37:52;;;;;;;48.47;6.75;;;;;;;;;;5047827;28;20396;-79
2024/01/25 09:40:20;;;;;;;51.47;6.75;;;;;;;;;;5047430;28;20017;-80
2024/01/25 09:42:48;;;;;;;55.95;6.60;;;;;;;;;;5044637;28;20021;-79
2024/01/25 09:45:17;;;;;;;54.78;6.93;;;;;;;;;;5048098;28;20017;-80
2024/01/25 09:47:44;;;;;;;62.95;7.05;;;;;;;;;;5047642;28;20028;-80
2024/01/25 09:50:10;;;;;;;56.60;6.60;;;;;;;;;;5037254;28;20056;-80
2024/01/25 09:52:36;;;;;;;44.15;6.53;;;;;;;;;;5027159;28;20210;-80
2024/01/25 09:55:02;;;;;;;54.50;6.78;;;;;;;;;;5040107;28;20496;-79
2024/01/25 09:57:28;;;;;;;58.42;6.55;;;;;;;;;;5046660;28;20312;-79
2024/01/25 09:59:55;;;;;;;43.83;6.78;;;;;;;;;;5047543;28;20043;-80
2024/01/25 10:02:21;;;;;;;51.15;6.25;;;;;;;;;;5048169;28;20533;-80
2024/01/25 10:04:54;;;;;;;39.80;6.30;;;;;;;;;;5047294;28;20462;-79
2024/01/25 10:07:38;;;;;;;47.80;6.78;;;;;;;;;;5046981;28;20017;-80
2024/01/25 10:10:05;;;;;;;42.63;5.50;;;;;;;;;;5038147;28;20091;-84
2024/01/25 10:12:31;;;;;;;44.25;6.35;;;;;;;;;;5029750;28;20033;-85
2024/01/25 10:14:57;;;;;;;41.67;5.78;;;;;;;;;;5028026;28;20026;-87
2024/01/25 10:17:24;;;;;;;48.05;6.97;;;;;;;;;;5028831;28;20014;-82
2024/01/25 10:19:50;;;;;;;54.13;7.30;;;;;;;;;;5030434;28;20355;-83
2024/01/25 10:22:16;;;;;;;42.78;6.35;;;;;;;;;;5027816;28;20018;-82
2024/01/25 10:24:42;;;;;;;39.13;6.45;;;;;;;;;;5028141;28;20049;-80
2024/01/25 10:27:08;;;;;;;48.38;6.47;;;;;;;;;;5029302;28;20018;-81
2024/01/25 10:29:35;;;;;;;40.03;6.10;;;;;;;;;;5029944;28;20144;-82
2024/01/25 10:32:01;;;;;;;41.63;5.97;;;;;;;;;;5048115;28;20500;-84
2024/01/25 10:34:28;;;;;;;45.17;6.70;;;;;;;;;;5047762;28;20025;-82
2024/01/25 10:36:54;;;;;;;36.03;7.00;;;;;;;;;;5028069;28;20482;-81
2024/01/25 10:39:21;;;;;;;51.72;7.00;;;;;;;;;;5028912;28;20298;-80
2024/01/25 10:41:50;;;;;;;50.38;6.85;;;;;;;;;;5027993;28;20030;-82
2024/01/25 10:44:20;;;;;;;30.90;6.30;;;;;;;;;;5029245;28;20014;-81
2024/01/25 10:46:49;;;;;;;51.40;7.13;;;;;;;;;;5048132;28;20013;-83
2024/01/25 10:49:15;;;;;;;37.83;6.03;;;;;;;;;;5047525;28;20329;-83
2024/01/25 10:51:42;;;;;;;37.42;5.95;;;;;;;;;;5032543;28;20026;-84
2024/01/25 10:54:08;;;;;;;52.45;6.35;;;;;;;;;;5032166;28;20037;-79
2024/01/25 10:56:38;;;;;;;42.55;6.82;;;;;;;;;;5048333;28;20056;-79
2024/01/25 10:59:06;;;;;;;32.53;6.13;;;;;;;;;;5045864;28;20021;-79
2024/01/25 11:01:33;;;;;;;47.65;7.65;;;;;;;;;;5036013;28;20112;-79
2024/01/25 11:04:00;;;;;;;39.25;6.35;;;;;;;;;;5039450;28;20510;-79
2024/01/25 11:06:27;;;;;;;37.55;6.75;;;;;;;;;;5046562;28;20013;-79
2024/01/25 11:09:05;;;;;;;44.50;6.53;;;;;;;;;;5049450;28;20120;-79
2024/01/25 11:11:32;;;;;;;37.97;5.80;;;;;;;;;;5049948;28;20052;-79
2024/01/25 11:13:59;;;;;;;42.63;5.65;;;;;;;;;;5051083;28;20025;-79
2024/01/25 11:16:34;;;;;;;36.38;6.22;;;;;;;;;;5035717;28;20014;-79
2024/01/25 11:19:06;;;;;;;34.63;5.85;;;;;;;;;;5029378;28;20029;-79
2024/01/25 11:21:41;;;;;;;35.38;6.53;;;;;;;;;;5032975;28;20016;-79
2024/01/25 11:24:12;;;;;;;40.33;6.43;;;;;;;;;;5041155;28;20037;-79
2024/01/25 11:26:38;;;;;;;32.97;6.03;;;;;;;;;;5035582;28;20017;-79
2024/01/25 11:29:04;;;;;;;39.17;6.40;;;;;;;;;;5049312;28;20053;-79
2024/01/25 11:31:30;;;;;;;33.72;6.28;;;;;;;;;;5038728;28;20041;-79
2024/01/25 11:34:00;;;;;;;29.40;6.03;;;;;;;;;;5029689;28;20045;-79
2024/01/25 11:36:26;;;;;;;39.90;5.45;;;;;;;;;;5041909;28;20055;-79
2024/01/25 11:38:53;;;;;;;39.22;6.50;;;;;;;;;;5049492;28;20056;-80
2024/01/25 11:41:19;;;;;;;36.53;6.20;;;;;;;;;;5049661;28;20077;-79
2024/01/25 11:43:45;;;;;;;36.42;6.75;;;;;;;;;;5049958;28;20021;-80
2024/01/25 11:46:12;;;;;;;34.25;6.88;;;;;;;;;;5041997;28;20026;-79
2024/01/25 11:48:42;;;;;;;32.03;6.00;;;;;;;;;;5030576;28;20392;-79
2024/01/25 11:51:10;;;;;;;38.00;7.07;;;;;;;;;;5039061;28;20029;-80
2024/01/25 11:53:36;;;;;;;33.08;6.97;;;;;;;;;;5050560;28;20029;-80
2024/01/25 11:56:02;;;;;;;41.53;6.50;;;;;;;;;;5045894;28;20379;-78
2024/01/25 11:58:29;;;;;;;40.83;6.70;;;;;;;;;;5033028;28;20083;-78
2024/01/25 12:00:55;;;;;;;37.13;6.65;;;;;;;;;;5047257;28;20060;-78
2024/01/25 12:03:21;;;;;;;29.63;6.45;;;;;;;;;;5050348;28;20032;-79
2024/01/25 12:05:47;;;;;;;39.60;6.15;;;;;;;;;;5051237;28;20043;-83
2024/01/25 12:08:14;;;;;;;41.97;7.50;;;;;;;;;;5046803;28;20433;-79
2024/01/25 12:10:40;;;;;;;37.00;6.55;;;;;;;;;;5044062;28;20515;-79
2024/01/25 12:13:10;;;;;;;35.40;6.43;;;;;;;;;;5031288;28;20017;-79
2024/01/25 12:15:36;;;;;;;32.28;6.20;;;;;;;;;;5032634;28;20510;-79
2024/01/25 12:18:02;;;;;;;31.08;5.75;;;;;;;;;;5049656;28;20025;-79
2024/01/25 12:20:29;;;;;;;32.38;5.63;;;;;;;;;;5051184;28;20071;-80
2024/01/25 12:22:55;;;;;;;31.95;6.40;;;;;;;;;;5029116;28;20049;-79
2024/01/25 12:25:21;;;;;;;38.58;7.95;;;;;;;;;;5030284;28;20041;-80
2024/01/25 12:27:49;;;;;;;38.00;6.95;;;;;;;;;;5048133;28;20036;-80
2024/01/25 12:30:15;;;;;;;38.95;6.97;;;;;;;;;;5049678;28;20136;-80
2024/01/25 12:32:41;;;;;;;40.75;7.40;;;;;;;;;;5050833;28;20033;-80
2024/01/25 12:35:08;;;;;;;27.00;5.30;;;;;;;;;;5051289;28;20057;-79
2024/01/25 12:37:34;;;;;;;27.80;6.78;;;;;;;;;;5034305;28;20029;-80
2024/01/25 12:40:00;;;;;;;35.55;6.72;;;;;;;;;;5029574;28;20486;-80
2024/01/25 12:42:27;;;;;;;31.88;5.72;;;;;;;;;;5043795;28;20120;-80
2024/01/25 12:44:56;;;;;;;30.23;5.45;;;;;;;;;;5050797;28;20035;-80
2024/01/25 12:47:22;;;;;;;33.87;6.63;;;;;;;;;;5049419;28;20029;-79
2024/01/25 12:49:48;;;;;;;33.05;6.00;;;;;;;;;;5050547;28;20108;-80
2024/01/25 12:52:15;;;;;;;29.05;5.65;;;;;;;;;;5037299;28;20030;-80
2024/01/25 12:54:41;;;;;;;26.48;5.57;;;;;;;;;;5029621;28;20034;-80
2024/01/25 12:57:07;;;;;;;37.85;7.07;;;;;;;;;;5039333;28;20029;-80
2024/01/25 12:59:34;;;;;;;29.35;5.38;;;;;;;;;;5046075;28;20029;-85
2024/01/25 13:02:01;;;;;;;30.08;5.40;;;;;;;;;;5036052;28;20043;-81
2024/01/25 13:04:27;;;;;;;28.08;5.72;;;;;;;;;;5040474;28;20071;-83
2024/01/25 13:06:56;;;;;;;33.17;6.55;;;;;;;;;;5051124;28;20032;-81
2024/01/25 13:09:23;;;;;;;30.97;6.27;;;;;;;;;;5049312;28;20112;-80
2024/01/25 13:11:49;;;;;;;28.95;6.38;;;;;;;;;;5036295;28;20039;-81
2024/01/25 13:14:15;;;;;;;35.10;7.55;;;;;;;;;;5049137;28;20051;-81
2024/01/25 13:16:41;;;;;;;35.35;6.65;;;;;;;;;;5049521;28;20021;-81
2024/01/25 13:19:07;;;;;;;28.63;6.65;;;;;;;;;;5050261;28;20145;-82
2024/01/25 13:21:33;;;;;;;29.60;6.95;;;;;;;;;;5050520;28;20024;-81
2024/01/25 13:24:02;;;;;;;30.90;6.28;;;;;;;;;;5049919;28;20094;-81
2024/01/25 13:26:28;;;;;;;30.13;6.93;;;;;;;;;;5048430;28;20021;-81
2024/01/25 13:28:54;;;;;;;35.60;7.38;;;;;;;;;;5031243;28;20045;-82
2024/01/25 13:31:20;;;;;;;32.38;6.85;;;;;;;;;;5032207;28;20025;-81
2024/01/25 13:33:46;;;;;;;34.22;6.88;;;;;;;;;;5030042;28;20079;-82
2024/01/25 13:36:14;;;;;;;27.83;6.75;;;;;;;;;;5030833;28;20017;-83
2024/01/25 13:38:40;;;;;;;31.13;6.63;;;;;;;;;;5042340;28;20377;-82
2024/01/25 13:41:06;;;;;;;28.63;6.85;;;;;;;;;;5052249;28;20021;-82
2024/01/25 13:43:32;;;;;;;32.33;7.60;;;;;;;;;;5033374;28;20025;-83
2024/01/25 13:45:58;;;;;;;28.30;6.43;;;;;;;;;;5031366;28;20083;-82
2024/01/25 13:48:24;;;;;;;31.50;5.95;;;;;;;;;;5032627;28;20021;-83
2024/01/25 13:50:50;;;;;;;26.40;6.15;;;;;;;;;;5032098;28;20109;-82
2024/01/25 13:53:17;;;;;;;36.42;6.45;;;;;;;;;;5038847;28;20026;-83
2024/01/25 13:55:43;;;;;;;27.40;5.68;;;;;;;;;;5031492;28;20033;-82
2024/01/25 13:58:09;;;;;;;25.40;6.13;;;;;;;;;;5039911;28;20013;-82
2024/01/25 14:00:35;;;;;;;24.55;6.32;;;;;;;;;;5035073;28;20021;-82
2024/01/25 14:03:01;;;;;;;27.95;6.00;;;;;;;;;;5041114;28;20029;-82
2024/01/25 14:05:27;;;;;;;32.72;6.22;;;;;;;;;;5051458;28;20028;-82
2024/01/25 14:07:53;;;;;;;34.47;6.22;;;;;;;;;;5051077;28;20025;-83
2024/01/25 14:10:20;;;;;;;28.90;6.68;;;;;;;;;;5049981;28;20465;-83
2024/01/25 14:12:46;;;;;;;31.77;6.50;;;;;;;;;;5049857;28;20024;-83
2024/01/25 14:15:12;;;;;;;24.23;5.93;;;;;;;;;;5047160;28;20025;-83
2024/01/25 14:17:38;;;;;;;24.48;6.13;;;;;;;;;;5042765;28;20017;-83
2024/01/25 14:20:05;;;;;;;23.90;6.40;;;;;;;;;;5029443;28;20013;-83
2024/01/25 14:22:31;;;;;;;29.77;6.03;;;;;;;;;;5029750;28;20018;-83
2024/01/25 14:24:57;;;;;;;24.73;5.95;;;;;;;;;;5031811;28;20021;-82